sensor_id;sensor_type;location;lat;lon;timestamp;P1;durP1;ratioP1;P2;durP2;ratioP2
19505;SDS011;9894;50.852;-0.140;2024-01-11T00:02:18;6.20;;;5.80;;
19505;SDS011;9894;50.852;-0.140;2024-01-11T00:04:44;5.97;;;5.57;;
19505;SDS011;9894;50.852;-0.140;2024-01-11T00:07:11;4.97;;;4.68;;
19505;SDS011;9894;50.852;-0.140;2024-01-11T00:09:41;5.60;;;5.30;;
19505;SDS011;9894;50.852;-0.140;2024-01-11T00:12:07;6.10;;;5.70;;
19505;SDS011;9894;50.852;-0.140;2024-01-11T00:14:33;4.85;;;4.55;;
19505;SDS011;9894;50.852;-0.140;2024-01-11T00:17:00;6.45;;;5.95;;
19505;SDS011;9894;50.852;-0.140;2024-01-11T00:19:26;5.80;;;5.43;;
19505;SDS011;9894;50.852;-0.140;2024-01-11T00:21:52;6.93;;;6.43;;
19505;SDS011;9894;50.852;-0.140;2024-01-11T00:24:18;5.50;;;5.20;;
19505;SDS011;9894;50.852;-0.140;2024-01-11T00:26:44;6.45;;;5.95;;
19505;SDS011;9894;50.852;-0.140;2024-01-11T00:29:10;5.90;;;5.50;;
19505;SDS011;9894;50.852;-0.140;2024-01-11T00:31:37;8.73;;;7.97;;
19505;SDS011;9894;50.852;-0.140;2024-01-11T00:34:03;5.55;;;5.25;;
19505;SDS011;9894;50.852;-0.140;2024-01-11T00:36:30;5.10;;;4.80;;
19505;SDS011;9894;50.852;-0.140;2024-01-11T00:38:58;5.18;;;4.88;;
19505;SDS011;9894;50.852;-0.140;2024-01-11T00:41:24;5.57;;;5.20;;
19505;SDS011;9894;50.852;-0.140;2024-01-11T00:43:50;6.57;;;6.15;;
19505;SDS011;9894;50.852;-0.140;2024-01-11T00:46:17;5.82;;;5.43;;
19505;SDS011;9894;50.852;-0.140;2024-01-11T00:48:43;7.78;;;7.05;;
19505;SDS011;9894;50.852;-0.140;2024-01-11T00:51:09;11.20;;;10.25;;
19505;SDS011;9894;50.852;-0.140;2024-01-11T00:53:35;8.32;;;5.97;;
19505;SDS011;9894;50.852;-0.140;2024-01-11T00:56:01;5.00;;;4.70;;
19505;SDS011;9894;50.852;-0.140;2024-01-11T00:58:27;5.00;;;4.70;;
19505;SDS011;9894;50.852;-0.140;2024-01-11T01:00:53;5.43;;;5.13;;
19505;SDS011;9894;50.852;-0.140;2024-01-11T01:03:20;5.30;;;5.00;;
19505;SDS011;9894;50.852;-0.140;2024-01-11T01:05:46;14.30;;;5.63;;
19505;SDS011;9894;50.852;-0.140;2024-01-11T01:08:16;6.00;;;5.60;;
19505;SDS011;9894;50.852;-0.140;2024-01-11T01:10:42;8.38;;;5.68;;
19505;SDS011;9894;50.852;-0.140;2024-01-11T01:13:08;5.63;;;5.13;;
19505;SDS011;9894;50.852;-0.140;2024-01-11T01:15:34;5.38;;;5.07;;
19505;SDS011;9894;50.852;-0.140;2024-01-11T01:18:00;5.00;;;4.70;;
19505;SDS011;9894;50.852;-0.140;2024-01-11T01:20:26;8.15;;;5.10;;
19505;SDS011;9894;50.852;-0.140;2024-01-11T01:22:52;5.00;;;4.70;;
19505;SDS011;9894;50.852;-0.140;2024-01-11T01:25:18;5.00;;;4.70;;
19505;SDS011;9894;50.852;-0.140;2024-01-11T01:27:44;4.70;;;4.40;;
19505;SDS011;9894;50.852;-0.140;2024-01-11T01:30:11;4.82;;;4.53;;
19505;SDS011;9894;50.852;-0.140;2024-01-11T01:32:37;6.68;;;6.03;;
19505;SDS011;9894;50.852;-0.140;2024-01-11T01:35:03;5.10;;;4.80;;
19505;SDS011;9894;50.852;-0.140;2024-01-11T01:37:29;4.70;;;4.40;;
19505;SDS011;9894;50.852;-0.140;2024-01-11T01:39:55;4.68;;;4.38;;
19505;SDS011;9894;50.852;-0.140;2024-01-11T01:42:21;4.70;;;4.40;;
19505;SDS011;9894;50.852;-0.140;2024-01-11T01:44:47;5.25;;;4.85;;
19505;SDS011;9894;50.852;-0.140;2024-01-11T01:47:13;4.60;;;4.30;;
19505;SDS011;9894;50.852;-0.140;2024-01-11T01:49:40;5.68;;;5.28;;
19505;SDS011;9894;50.852;-0.140;2024-01-11T01:52:06;4.40;;;4.20;;
19505;SDS011;9894;50.852;-0.140;2024-01-11T01:54:33;4.72;;;4.43;;
19505;SDS011;9894;50.852;-0.140;2024-01-11T01:56:59;4.60;;;4.30;;
19505;SDS011;9894;50.852;-0.140;2024-01-11T01:59:26;5.07;;;4.78;;
19505;SDS011;9894;50.852;-0.140;2024-01-11T02:01:53;4.82;;;4.53;;
19505;SDS011;9894;50.852;-0.140;2024-01-11T02:04:19;4.68;;;4.38;;
19505;SDS011;9894;50.852;-0.140;2024-01-11T02:06:47;4.63;;;4.32;;
19505;SDS011;9894;50.852;-0.140;2024-01-11T02:09:14;4.30;;;4.10;;
19505;SDS011;9894;50.852;-0.140;2024-01-11T02:11:41;4.30;;;4.10;;
19505;SDS011;9894;50.852;-0.140;2024-01-11T02:14:08;4.00;;;3.80;;
19505;SDS011;9894;50.852;-0.140;2024-01-11T02:16:34;4.20;;;4.00;;
19505;SDS011;9894;50.852;-0.140;2024-01-11T02:19:00;3.75;;;3.55;;
19505;SDS011;9894;50.852;-0.140;2024-01-11T02:21:27;4.65;;;4.38;;
19505;SDS011;9894;50.852;-0.140;2024-01-11T02:24:01;4.40;;;4.13;;
19505;SDS011;9894;50.852;-0.140;2024-01-11T02:26:27;4.35;;;4.05;;
19505;SDS011;9894;50.852;-0.140;2024-01-11T02:28:54;4.63;;;4.22;;
19505;SDS011;9894;50.852;-0.140;2024-01-11T02:31:20;6.82;;;6.18;;
19505;SDS011;9894;50.852;-0.140;2024-01-11T02:33:46;4.72;;;4.38;;
19505;SDS011;9894;50.852;-0.140;2024-01-11T02:36:13;3.63;;;3.42;;
19505;SDS011;9894;50.852;-0.140;2024-01-11T02:38:39;5.45;;;5.05;;
19505;SDS011;9894;50.852;-0.140;2024-01-11T02:41:07;3.78;;;3.58;;
19505;SDS011;9894;50.852;-0.140;2024-01-11T02:43:34;5.45;;;4.95;;
19505;SDS011;9894;50.852;-0.140;2024-01-11T02:46:04;3.60;;;3.40;;
19505;SDS011;9894;50.852;-0.140;2024-01-11T02:48:30;3.75;;;3.55;;
19505;SDS011;9894;50.852;-0.140;2024-01-11T02:50:57;3.60;;;3.40;;
19505;SDS011;9894;50.852;-0.140;2024-01-11T02:53:23;4.00;;;3.80;;
19505;SDS011;9894;50.852;-0.140;2024-01-11T02:55:50;3.90;;;3.70;;
19505;SDS011;9894;50.852;-0.140;2024-01-11T02:58:16;3.80;;;3.60;;
19505;SDS011;9894;50.852;-0.140;2024-01-11T03:00:42;3.80;;;3.60;;
19505;SDS011;9894;50.852;-0.140;2024-01-11T03:03:08;3.70;;;3.50;;
19505;SDS011;9894;50.852;-0.140;2024-01-11T03:05:34;3.90;;;3.70;;
19505;SDS011;9894;50.852;-0.140;2024-01-11T03:08:01;3.80;;;3.60;;
19505;SDS011;9894;50.852;-0.140;2024-01-11T03:10:27;4.00;;;3.80;;
19505;SDS011;9894;50.852;-0.140;2024-01-11T03:12:53;3.90;;;3.70;;
19505;SDS011;9894;50.852;-0.140;2024-01-11T03:15:19;3.70;;;3.50;;
19505;SDS011;9894;50.852;-0.140;2024-01-11T03:17:45;3.90;;;3.70;;
19505;SDS011;9894;50.852;-0.140;2024-01-11T03:20:11;3.60;;;3.40;;
19505;SDS011;9894;50.852;-0.140;2024-01-11T03:22:40;3.90;;;3.70;;
19505;SDS011;9894;50.852;-0.140;2024-01-11T03:25:10;3.88;;;3.67;;
19505;SDS011;9894;50.852;-0.140;2024-01-11T03:27:36;4.00;;;3.80;;
19505;SDS011;9894;50.852;-0.140;2024-01-11T03:30:02;3.70;;;3.50;;
19505;SDS011;9894;50.852;-0.140;2024-01-11T03:32:29;3.75;;;3.55;;
19505;SDS011;9894;50.852;-0.140;2024-01-11T03:34:55;3.75;;;3.55;;
19505;SDS011;9894;50.852;-0.140;2024-01-11T03:37:21;4.13;;;3.92;;
19505;SDS011;9894;50.852;-0.140;2024-01-11T03:39:47;3.60;;;3.40;;
19505;SDS011;9894;50.852;-0.140;2024-01-11T03:42:14;3.97;;;3.78;;
19505;SDS011;9894;50.852;-0.140;2024-01-11T03:44:40;3.70;;;3.50;;
19505;SDS011;9894;50.852;-0.140;2024-01-11T03:47:06;5.53;;;5.15;;
19505;SDS011;9894;50.852;-0.140;2024-01-11T03:49:32;3.80;;;3.60;;
19505;SDS011;9894;50.852;-0.140;2024-01-11T03:51:58;4.38;;;4.10;;
19505;SDS011;9894;50.852;-0.140;2024-01-11T03:54:24;3.50;;;3.30;;
19505;SDS011;9894;50.852;-0.140;2024-01-11T03:56:50;3.70;;;3.50;;
19505;SDS011;9894;50.852;-0.140;2024-01-11T03:59:16;5.07;;;4.78;;
19505;SDS011;9894;50.852;-0.140;2024-01-11T04:01:42;4.15;;;3.75;;
19505;SDS011;9894;50.852;-0.140;2024-01-11T04:04:08;3.75;;;3.42;;
19505;SDS011;9894;50.852;-0.140;2024-01-11T04:06:35;5.82;;;5.43;;
19505;SDS011;9894;50.852;-0.140;2024-01-11T04:09:01;3.38;;;3.17;;
19505;SDS011;9894;50.852;-0.140;2024-01-11T04:11:37;2.80;;;2.70;;
19505;SDS011;9894;50.852;-0.140;2024-01-11T04:14:03;2.78;;;2.67;;
19505;SDS011;9894;50.852;-0.140;2024-01-11T04:16:29;2.65;;;2.55;;
19505;SDS011;9894;50.852;-0.140;2024-01-11T04:18:58;2.97;;;2.88;;
19505;SDS011;9894;50.852;-0.140;2024-01-11T04:21:25;2.90;;;2.80;;
19505;SDS011;9894;50.852;-0.140;2024-01-11T04:23:54;2.50;;;2.40;;
19505;SDS011;9894;50.852;-0.140;2024-01-11T04:26:20;2.58;;;2.47;;
19505;SDS011;9894;50.852;-0.140;2024-01-11T04:28:47;2.40;;;2.30;;
19505;SDS011;9894;50.852;-0.140;2024-01-11T04:31:13;2.60;;;2.50;;
19505;SDS011;9894;50.852;-0.140;2024-01-11T04:33:42;2.53;;;2.42;;
19505;SDS011;9894;50.852;-0.140;2024-01-11T04:36:08;2.30;;;2.20;;
19505;SDS011;9894;50.852;-0.140;2024-01-11T04:38:34;2.55;;;2.45;;
19505;SDS011;9894;50.852;-0.140;2024-01-11T04:41:02;2.67;;;2.58;;
19505;SDS011;9894;50.852;-0.140;2024-01-11T04:43:28;2.30;;;2.20;;
19505;SDS011;9894;50.852;-0.140;2024-01-11T04:45:54;2.30;;;2.20;;
19505;SDS011;9894;50.852;-0.140;2024-01-11T04:48:20;2.40;;;2.30;;
19505;SDS011;9894;50.852;-0.140;2024-01-11T04:50:46;2.30;;;2.20;;
19505;SDS011;9894;50.852;-0.140;2024-01-11T04:53:12;2.40;;;2.30;;
19505;SDS011;9894;50.852;-0.140;2024-01-11T04:55:39;2.10;;;2.00;;
19505;SDS011;9894;50.852;-0.140;2024-01-11T04:58:05;2.20;;;2.10;;
19505;SDS011;9894;50.852;-0.140;2024-01-11T05:00:31;3.75;;;3.35;;
19505;SDS011;9894;50.852;-0.140;2024-01-11T05:02:57;2.10;;;2.00;;
19505;SDS011;9894;50.852;-0.140;2024-01-11T05:05:23;2.13;;;2.03;;
19505;SDS011;9894;50.852;-0.140;2024-01-11T05:07:49;1.80;;;1.80;;
19505;SDS011;9894;50.852;-0.140;2024-01-11T05:10:15;2.65;;;2.55;;
19505;SDS011;9894;50.852;-0.140;2024-01-11T05:12:41;1.60;;;1.60;;
19505;SDS011;9894;50.852;-0.140;2024-01-11T05:15:07;1.60;;;1.60;;
19505;SDS011;9894;50.852;-0.140;2024-01-11T05:17:34;1.70;;;1.70;;
19505;SDS011;9894;50.852;-0.140;2024-01-11T05:20:00;2.60;;;2.50;;
19505;SDS011;9894;50.852;-0.140;2024-01-11T05:22:26;1.38;;;1.38;;
19505;SDS011;9894;50.852;-0.140;2024-01-11T05:24:52;1.40;;;1.40;;
19505;SDS011;9894;50.852;-0.140;2024-01-11T05:27:18;2.92;;;2.60;;
19505;SDS011;9894;50.852;-0.140;2024-01-11T05:29:44;1.40;;;1.40;;
19505;SDS011;9894;50.852;-0.140;2024-01-11T05:32:10;1.70;;;1.60;;
19505;SDS011;9894;50.852;-0.140;2024-01-11T05:34:36;2.00;;;1.83;;
19505;SDS011;9894;50.852;-0.140;2024-01-11T05:37:02;2.33;;;2.22;;
19505;SDS011;9894;50.852;-0.140;2024-01-11T05:39:28;2.13;;;2.03;;
19505;SDS011;9894;50.852;-0.140;2024-01-11T05:41:55;1.48;;;1.48;;
19505;SDS011;9894;50.852;-0.140;2024-01-11T05:44:21;1.90;;;1.80;;
19505;SDS011;9894;50.852;-0.140;2024-01-11T05:46:47;3.63;;;2.20;;
19505;SDS011;9894;50.852;-0.140;2024-01-11T05:49:13;1.58;;;1.58;;
19505;SDS011;9894;50.852;-0.140;2024-01-11T05:51:39;2.75;;;2.58;;
19505;SDS011;9894;50.852;-0.140;2024-01-11T05:54:05;1.60;;;1.60;;
19505;SDS011;9894;50.852;-0.140;2024-01-11T05:56:31;1.30;;;1.30;;
19505;SDS011;9894;50.852;-0.140;2024-01-11T05:58:57;1.40;;;1.40;;
19505;SDS011;9894;50.852;-0.140;2024-01-11T06:01:24;1.90;;;1.83;;
19505;SDS011;9894;50.852;-0.140;2024-01-11T06:03:50;1.30;;;1.30;;
19505;SDS011;9894;50.852;-0.140;2024-01-11T06:06:16;3.95;;;3.75;;
19505;SDS011;9894;50.852;-0.140;2024-01-11T06:08:42;1.30;;;1.30;;
19505;SDS011;9894;50.852;-0.140;2024-01-11T06:11:08;2.60;;;2.53;;
19505;SDS011;9894;50.852;-0.140;2024-01-11T06:13:34;2.10;;;2.00;;
19505;SDS011;9894;50.852;-0.140;2024-01-11T06:16:00;1.70;;;1.60;;
19505;SDS011;9894;50.852;-0.140;2024-01-11T06:18:26;1.50;;;1.50;;
19505;SDS011;9894;50.852;-0.140;2024-01-11T06:20:52;1.40;;;1.40;;
19505;SDS011;9894;50.852;-0.140;2024-01-11T06:23:19;4.75;;;4.45;;
19505;SDS011;9894;50.852;-0.140;2024-01-11T06:25:45;2.38;;;1.80;;
19505;SDS011;9894;50.852;-0.140;2024-01-11T06:28:11;1.20;;;1.20;;
19505;SDS011;9894;50.852;-0.140;2024-01-11T06:30:37;1.30;;;1.30;;
19505;SDS011;9894;50.852;-0.140;2024-01-11T06:33:03;1.50;;;1.50;;
19505;SDS011;9894;50.852;-0.140;2024-01-11T06:35:29;1.40;;;1.40;;
19505;SDS011;9894;50.852;-0.140;2024-01-11T06:37:56;1.33;;;1.33;;
19505;SDS011;9894;50.852;-0.140;2024-01-11T06:40:22;1.50;;;1.50;;
19505;SDS011;9894;50.852;-0.140;2024-01-11T06:42:49;1.55;;;1.55;;
19505;SDS011;9894;50.852;-0.140;2024-01-11T06:45:15;1.50;;;1.50;;
19505;SDS011;9894;50.852;-0.140;2024-01-11T06:47:41;1.38;;;1.38;;
19505;SDS011;9894;50.852;-0.140;2024-01-11T06:50:07;1.70;;;1.70;;
19505;SDS011;9894;50.852;-0.140;2024-01-11T06:52:33;1.50;;;1.50;;
19505;SDS011;9894;50.852;-0.140;2024-01-11T06:54:59;1.40;;;1.40;;
19505;SDS011;9894;50.852;-0.140;2024-01-11T06:57:26;1.50;;;1.50;;
19505;SDS011;9894;50.852;-0.140;2024-01-11T06:59:52;1.60;;;1.60;;
19505;SDS011;9894;50.852;-0.140;2024-01-11T07:02:18;1.60;;;1.60;;
19505;SDS011;9894;50.852;-0.140;2024-01-11T07:04:44;1.50;;;1.50;;
19505;SDS011;9894;50.852;-0.140;2024-01-11T07:07:10;1.25;;;1.25;;
19505;SDS011;9894;50.852;-0.140;2024-01-11T07:09:36;1.60;;;1.60;;
19505;SDS011;9894;50.852;-0.140;2024-01-11T07:12:02;4.63;;;2.83;;
19505;SDS011;9894;50.852;-0.140;2024-01-11T07:14:29;1.50;;;1.50;;
19505;SDS011;9894;50.852;-0.140;2024-01-11T07:16:57;1.40;;;1.40;;
19505;SDS011;9894;50.852;-0.140;2024-01-11T07:19:23;1.30;;;1.30;;
19505;SDS011;9894;50.852;-0.140;2024-01-11T07:21:49;1.60;;;1.60;;
19505;SDS011;9894;50.852;-0.140;2024-01-11T07:24:16;1.67;;;1.67;;
19505;SDS011;9894;50.852;-0.140;2024-01-11T07:26:43;1.60;;;1.60;;
19505;SDS011;9894;50.852;-0.140;2024-01-11T07:29:09;1.85;;;1.80;;
19505;SDS011;9894;50.852;-0.140;2024-01-11T07:31:36;1.40;;;1.40;;
19505;SDS011;9894;50.852;-0.140;2024-01-11T07:34:02;1.65;;;1.58;;
19505;SDS011;9894;50.852;-0.140;2024-01-11T07:36:28;1.33;;;1.33;;
19505;SDS011;9894;50.852;-0.140;2024-01-11T07:38:54;1.60;;;1.60;;
19505;SDS011;9894;50.852;-0.140;2024-01-11T07:41:23;1.70;;;1.70;;
19505;SDS011;9894;50.852;-0.140;2024-01-11T07:43:49;1.40;;;1.40;;
19505;SDS011;9894;50.852;-0.140;2024-01-11T07:46:15;1.70;;;1.70;;
19505;SDS011;9894;50.852;-0.140;2024-01-11T07:48:41;1.50;;;1.50;;
19505;SDS011;9894;50.852;-0.140;2024-01-11T07:51:08;1.50;;;1.50;;
19505;SDS011;9894;50.852;-0.140;2024-01-11T07:53:34;1.70;;;1.70;;
19505;SDS011;9894;50.852;-0.140;2024-01-11T07:56:00;2.10;;;2.00;;
19505;SDS011;9894;50.852;-0.140;2024-01-11T07:58:26;2.60;;;2.45;;
19505;SDS011;9894;50.852;-0.140;2024-01-11T08:00:52;1.48;;;1.48;;
19505;SDS011;9894;50.852;-0.140;2024-01-11T08:03:19;1.60;;;1.60;;
19505;SDS011;9894;50.852;-0.140;2024-01-11T08:05:45;1.60;;;1.60;;
19505;SDS011;9894;50.852;-0.140;2024-01-11T08:08:11;1.80;;;1.80;;
19505;SDS011;9894;50.852;-0.140;2024-01-11T08:10:37;1.40;;;1.40;;
19505;SDS011;9894;50.852;-0.140;2024-01-11T08:13:03;2.00;;;1.90;;
19505;SDS011;9894;50.852;-0.140;2024-01-11T08:15:29;2.60;;;2.50;;
19505;SDS011;9894;50.852;-0.140;2024-01-11T08:17:56;4.80;;;2.50;;
19505;SDS011;9894;50.852;-0.140;2024-01-11T08:20:22;1.90;;;1.80;;
19505;SDS011;9894;50.852;-0.140;2024-01-11T08:22:48;1.65;;;1.65;;
19505;SDS011;9894;50.852;-0.140;2024-01-11T08:25:14;1.60;;;1.60;;
19505;SDS011;9894;50.852;-0.140;2024-01-11T08:27:40;5.50;;;2.60;;
19505;SDS011;9894;50.852;-0.140;2024-01-11T08:30:06;2.05;;;1.95;;
19505;SDS011;9894;50.852;-0.140;2024-01-11T08:32:33;1.40;;;1.40;;
19505;SDS011;9894;50.852;-0.140;2024-01-11T08:35:04;1.50;;;1.50;;
19505;SDS011;9894;50.852;-0.140;2024-01-11T08:37:31;1.90;;;1.80;;
19505;SDS011;9894;50.852;-0.140;2024-01-11T08:39:58;1.30;;;1.30;;
19505;SDS011;9894;50.852;-0.140;2024-01-11T08:42:24;1.50;;;1.50;;
19505;SDS011;9894;50.852;-0.140;2024-01-11T08:44:50;3.88;;;2.25;;
19505;SDS011;9894;50.852;-0.140;2024-01-11T08:47:17;1.70;;;1.60;;
19505;SDS011;9894;50.852;-0.140;2024-01-11T08:49:43;2.60;;;2.17;;
19505;SDS011;9894;50.852;-0.140;2024-01-11T08:52:09;4.57;;;1.88;;
19505;SDS011;9894;50.852;-0.140;2024-01-11T08:54:35;11.60;;;4.80;;
19505;SDS011;9894;50.852;-0.140;2024-01-11T08:57:01;3.45;;;3.25;;
19505;SDS011;9894;50.852;-0.140;2024-01-11T08:59:28;1.20;;;1.20;;
19505;SDS011;9894;50.852;-0.140;2024-01-11T09:01:54;2.67;;;1.70;;
19505;SDS011;9894;50.852;-0.140;2024-01-11T09:04:20;1.58;;;1.55;;
19505;SDS011;9894;50.852;-0.140;2024-01-11T09:06:46;6.95;;;2.58;;
19505;SDS011;9894;50.852;-0.140;2024-01-11T09:09:12;1.40;;;1.40;;
19505;SDS011;9894;50.852;-0.140;2024-01-11T09:11:39;1.30;;;1.30;;
19505;SDS011;9894;50.852;-0.140;2024-01-11T09:14:08;1.77;;;1.67;;
19505;SDS011;9894;50.852;-0.140;2024-01-11T09:16:38;1.85;;;1.60;;
19505;SDS011;9894;50.852;-0.140;2024-01-11T09:19:05;1.23;;;1.23;;
19505;SDS011;9894;50.852;-0.140;2024-01-11T09:21:31;6.18;;;3.85;;
19505;SDS011;9894;50.852;-0.140;2024-01-11T09:23:57;1.88;;;1.77;;
19505;SDS011;9894;50.852;-0.140;2024-01-11T09:26:24;1.98;;;1.88;;
19505;SDS011;9894;50.852;-0.140;2024-01-11T09:28:50;1.20;;;1.20;;
19505;SDS011;9894;50.852;-0.140;2024-01-11T09:31:16;2.88;;;2.67;;
19505;SDS011;9894;50.852;-0.140;2024-01-11T09:33:42;1.15;;;1.15;;
19505;SDS011;9894;50.852;-0.140;2024-01-11T09:36:10;2.28;;;2.17;;
19505;SDS011;9894;50.852;-0.140;2024-01-11T09:38:36;1.73;;;1.63;;
19505;SDS011;9894;50.852;-0.140;2024-01-11T09:41:10;1.20;;;1.20;;
19505;SDS011;9894;50.852;-0.140;2024-01-11T09:43:38;1.40;;;1.40;;
19505;SDS011;9894;50.852;-0.140;2024-01-11T09:46:06;3.83;;;2.33;;
19505;SDS011;9894;50.852;-0.140;2024-01-11T09:48:32;1.65;;;1.55;;
19505;SDS011;9894;50.852;-0.140;2024-01-11T09:50:58;2.08;;;1.75;;
19505;SDS011;9894;50.852;-0.140;2024-01-11T09:53:25;5.47;;;2.90;;
19505;SDS011;9894;50.852;-0.140;2024-01-11T09:55:52;2.30;;;2.10;;
19505;SDS011;9894;50.852;-0.140;2024-01-11T09:58:19;6.47;;;3.03;;
19505;SDS011;9894;50.852;-0.140;2024-01-11T10:00:46;1.20;;;1.20;;
19505;SDS011;9894;50.852;-0.140;2024-01-11T10:03:13;2.78;;;2.03;;
19505;SDS011;9894;50.852;-0.140;2024-01-11T10:05:39;1.10;;;1.10;;
19505;SDS011;9894;50.852;-0.140;2024-01-11T10:08:06;4.95;;;2.40;;
19505;SDS011;9894;50.852;-0.140;2024-01-11T10:10:33;1.40;;;1.40;;
19505;SDS011;9894;50.852;-0.140;2024-01-11T10:12:59;1.30;;;1.30;;
19505;SDS011;9894;50.852;-0.140;2024-01-11T10:15:25;7.78;;;3.67;;
19505;SDS011;9894;50.852;-0.140;2024-01-11T10:17:51;7.35;;;2.45;;
19505;SDS011;9894;50.852;-0.140;2024-01-11T10:20:17;6.70;;;2.85;;
19505;SDS011;9894;50.852;-0.140;2024-01-11T10:22:48;3.42;;;2.58;;
19505;SDS011;9894;50.852;-0.140;2024-01-11T10:25:16;2.05;;;1.95;;
19505;SDS011;9894;50.852;-0.140;2024-01-11T10:27:43;1.52;;;1.52;;
19505;SDS011;9894;50.852;-0.140;2024-01-11T10:30:10;1.58;;;1.48;;
19505;SDS011;9894;50.852;-0.140;2024-01-11T10:32:58;1.30;;;1.30;;
19505;SDS011;9894;50.852;-0.140;2024-01-11T10:35:30;1.17;;;1.17;;
19505;SDS011;9894;50.852;-0.140;2024-01-11T10:37:56;2.85;;;2.65;;
19505;SDS011;9894;50.852;-0.140;2024-01-11T10:40:24;2.10;;;2.00;;
19505;SDS011;9894;50.852;-0.140;2024-01-11T10:42:51;1.63;;;1.63;;
19505;SDS011;9894;50.852;-0.140;2024-01-11T10:45:17;2.30;;;2.20;;
19505;SDS011;9894;50.852;-0.140;2024-01-11T10:47:50;1.70;;;1.70;;
19505;SDS011;9894;50.852;-0.140;2024-01-11T10:50:16;2.55;;;2.45;;
19505;SDS011;9894;50.852;-0.140;2024-01-11T10:52:48;1.80;;;1.80;;
19505;SDS011;9894;50.852;-0.140;2024-01-11T10:55:16;2.63;;;2.22;;
19505;SDS011;9894;50.852;-0.140;2024-01-11T10:57:43;1.70;;;1.70;;
19505;SDS011;9894;50.852;-0.140;2024-01-11T11:00:09;2.10;;;2.00;;
19505;SDS011;9894;50.852;-0.140;2024-01-11T11:02:37;1.70;;;1.70;;
19505;SDS011;9894;50.852;-0.140;2024-01-11T11:05:04;4.30;;;2.38;;
19505;SDS011;9894;50.852;-0.140;2024-01-11T11:07:31;2.78;;;2.55;;
19505;SDS011;9894;50.852;-0.140;2024-01-11T11:09:59;11.73;;;3.45;;
19505;SDS011;9894;50.852;-0.140;2024-01-11T11:12:27;1.83;;;1.77;;
19505;SDS011;9894;50.852;-0.140;2024-01-11T11:14:53;4.32;;;2.35;;
19505;SDS011;9894;50.852;-0.140;2024-01-11T11:17:20;2.10;;;2.00;;
19505;SDS011;9894;50.852;-0.140;2024-01-11T11:19:46;2.13;;;2.03;;
19505;SDS011;9894;50.852;-0.140;2024-01-11T11:22:13;2.78;;;2.15;;
19505;SDS011;9894;50.852;-0.140;2024-01-11T11:24:40;2.58;;;2.47;;
19505;SDS011;9894;50.852;-0.140;2024-01-11T11:27:07;2.10;;;2.00;;
19505;SDS011;9894;50.852;-0.140;2024-01-11T11:29:33;2.83;;;2.55;;
19505;SDS011;9894;50.852;-0.140;2024-01-11T11:31:59;4.05;;;3.58;;
19505;SDS011;9894;50.852;-0.140;2024-01-11T11:34:41;2.70;;;2.60;;
19505;SDS011;9894;50.852;-0.140;2024-01-11T11:37:10;2.80;;;2.70;;
19505;SDS011;9894;50.852;-0.140;2024-01-11T11:39:37;3.30;;;3.10;;
19505;SDS011;9894;50.852;-0.140;2024-01-11T11:42:06;2.22;;;1.85;;
19505;SDS011;9894;50.852;-0.140;2024-01-11T11:44:33;2.70;;;2.50;;
19505;SDS011;9894;50.852;-0.140;2024-01-11T11:47:18;2.30;;;2.20;;
19505;SDS011;9894;50.852;-0.140;2024-01-11T11:52:34;2.30;;;2.20;;
19505;SDS011;9894;50.852;-0.140;2024-01-11T11:55:01;3.20;;;3.00;;
19505;SDS011;9894;50.852;-0.140;2024-01-11T11:57:27;3.88;;;3.47;;
19505;SDS011;9894;50.852;-0.140;2024-01-11T11:59:55;4.15;;;3.85;;
19505;SDS011;9894;50.852;-0.140;2024-01-11T12:02:22;5.32;;;5.03;;
19505;SDS011;9894;50.852;-0.140;2024-01-11T12:04:49;6.38;;;5.97;;
19505;SDS011;9894;50.852;-0.140;2024-01-11T12:07:15;8.07;;;7.47;;
19505;SDS011;9894;50.852;-0.140;2024-01-11T12:09:41;9.02;;;8.43;;
19505;SDS011;9894;50.852;-0.140;2024-01-11T12:12:08;9.73;;;8.93;;
19505;SDS011;9894;50.852;-0.140;2024-01-11T12:14:34;11.65;;;10.60;;
19505;SDS011;9894;50.852;-0.140;2024-01-11T12:17:00;8.68;;;8.07;;
19505;SDS011;9894;50.852;-0.140;2024-01-11T12:19:27;10.50;;;9.70;;
19505;SDS011;9894;50.852;-0.140;2024-01-11T12:21:54;10.80;;;10.00;;
19505;SDS011;9894;50.852;-0.140;2024-01-11T12:24:20;10.88;;;10.10;;
19505;SDS011;9894;50.852;-0.140;2024-01-11T12:26:50;10.63;;;9.82;;
19505;SDS011;9894;50.852;-0.140;2024-01-11T12:29:19;9.70;;;9.00;;
19505;SDS011;9894;50.852;-0.140;2024-01-11T12:31:45;9.90;;;9.20;;
19505;SDS011;9894;50.852;-0.140;2024-01-11T12:34:11;10.13;;;9.20;;
19505;SDS011;9894;50.852;-0.140;2024-01-11T12:36:38;9.35;;;8.75;;
19505;SDS011;9894;50.852;-0.140;2024-01-11T12:39:04;9.80;;;9.10;;
19505;SDS011;9894;50.852;-0.140;2024-01-11T12:41:32;9.80;;;9.10;;
19505;SDS011;9894;50.852;-0.140;2024-01-11T12:43:58;9.52;;;8.82;;
19505;SDS011;9894;50.852;-0.140;2024-01-11T12:46:25;10.80;;;10.10;;
19505;SDS011;9894;50.852;-0.140;2024-01-11T12:48:51;9.23;;;8.63;;
19505;SDS011;9894;50.852;-0.140;2024-01-11T12:51:17;10.23;;;9.52;;
19505;SDS011;9894;50.852;-0.140;2024-01-11T12:53:51;10.93;;;10.13;;
19505;SDS011;9894;50.852;-0.140;2024-01-11T12:56:17;11.55;;;10.65;;
19505;SDS011;9894;50.852;-0.140;2024-01-11T12:58:43;11.75;;;10.52;;
19505;SDS011;9894;50.852;-0.140;2024-01-11T13:01:12;11.07;;;10.27;;
19505;SDS011;9894;50.852;-0.140;2024-01-11T13:03:39;11.75;;;10.40;;
19505;SDS011;9894;50.852;-0.140;2024-01-11T13:06:06;10.23;;;9.52;;
19505;SDS011;9894;50.852;-0.140;2024-01-11T13:08:34;12.00;;;11.10;;
19505;SDS011;9894;50.852;-0.140;2024-01-11T13:11:07;11.23;;;10.43;;
19505;SDS011;9894;50.852;-0.140;2024-01-11T13:13:34;9.70;;;9.00;;
19505;SDS011;9894;50.852;-0.140;2024-01-11T13:16:03;11.63;;;10.60;;
19505;SDS011;9894;50.852;-0.140;2024-01-11T13:18:36;10.15;;;9.45;;
19505;SDS011;9894;50.852;-0.140;2024-01-11T13:21:02;13.10;;;12.05;;
19505;SDS011;9894;50.852;-0.140;2024-01-11T13:23:28;12.07;;;11.18;;
19505;SDS011;9894;50.852;-0.140;2024-01-11T13:25:54;12.38;;;11.27;;
19505;SDS011;9894;50.852;-0.140;2024-01-11T13:28:20;11.65;;;10.85;;
19505;SDS011;9894;50.852;-0.140;2024-01-11T13:30:47;10.50;;;9.80;;
19505;SDS011;9894;50.852;-0.140;2024-01-11T13:33:16;10.45;;;9.75;;
19505;SDS011;9894;50.852;-0.140;2024-01-11T13:35:45;12.00;;;11.10;;
19505;SDS011;9894;50.852;-0.140;2024-01-11T13:38:15;11.80;;;11.00;;
19505;SDS011;9894;50.852;-0.140;2024-01-11T13:40:41;12.50;;;11.60;;
19505;SDS011;9894;50.852;-0.140;2024-01-11T13:43:11;12.68;;;11.70;;
19505;SDS011;9894;50.852;-0.140;2024-01-11T13:45:40;23.38;;;11.30;;
19505;SDS011;9894;50.852;-0.140;2024-01-11T13:48:06;10.20;;;9.50;;
19505;SDS011;9894;50.852;-0.140;2024-01-11T13:50:32;11.18;;;10.38;;
19505;SDS011;9894;50.852;-0.140;2024-01-11T13:52:59;12.75;;;11.85;;
19505;SDS011;9894;50.852;-0.140;2024-01-11T13:55:27;12.90;;;11.90;;
19505;SDS011;9894;50.852;-0.140;2024-01-11T13:57:54;13.15;;;12.25;;
19505;SDS011;9894;50.852;-0.140;2024-01-11T14:00:20;12.75;;;11.85;;
19505;SDS011;9894;50.852;-0.140;2024-01-11T14:02:46;15.85;;;13.18;;
19505;SDS011;9894;50.852;-0.140;2024-01-11T14:05:13;14.00;;;12.98;;
19505;SDS011;9894;50.852;-0.140;2024-01-11T14:07:42;14.73;;;13.63;;
19505;SDS011;9894;50.852;-0.140;2024-01-11T14:10:11;13.48;;;12.50;;
19505;SDS011;9894;50.852;-0.140;2024-01-11T14:12:38;13.60;;;12.70;;
19505;SDS011;9894;50.852;-0.140;2024-01-11T14:15:04;13.52;;;12.63;;
19505;SDS011;9894;50.852;-0.140;2024-01-11T14:17:34;13.80;;;12.80;;
19505;SDS011;9894;50.852;-0.140;2024-01-11T14:20:00;15.68;;;14.48;;
19505;SDS011;9894;50.852;-0.140;2024-01-11T14:22:28;15.13;;;13.90;;
19505;SDS011;9894;50.852;-0.140;2024-01-11T14:24:54;16.80;;;15.25;;
19505;SDS011;9894;50.852;-0.140;2024-01-11T14:27:20;14.90;;;13.80;;
19505;SDS011;9894;50.852;-0.140;2024-01-11T14:29:47;16.33;;;15.13;;
19505;SDS011;9894;50.852;-0.140;2024-01-11T14:32:13;17.00;;;15.80;;
19505;SDS011;9894;50.852;-0.140;2024-01-11T14:34:43;17.65;;;15.93;;
19505;SDS011;9894;50.852;-0.140;2024-01-11T14:37:10;16.60;;;15.40;;
19505;SDS011;9894;50.852;-0.140;2024-01-11T14:39:36;16.40;;;15.20;;
19505;SDS011;9894;50.852;-0.140;2024-01-11T14:42:02;15.73;;;14.63;;
19505;SDS011;9894;50.852;-0.140;2024-01-11T14:44:29;16.02;;;14.82;;